createdAt,value
2017-06-30T00:00:09.042Z,99.99
2017-06-30T00:00:22.505Z,99.99
2017-06-30T00:00:35.987Z,99.99
2017-06-30T00:00:49.373Z,99.99
2017-06-30T00:01:02.835Z,99.99
2017-06-30T00:01:16.323Z,99.99
2017-06-30T00:01:29.713Z,99.99
2017-06-30T00:01:42.622Z,99.99
2017-06-30T00:01:56.123Z,99.99
2017-06-30T00:02:09.560Z,99.99
2017-06-30T00:02:22.973Z,99.99
2017-06-30T00:02:35.951Z,99.99
2017-06-30T00:02:49.427Z,99.99
2017-06-30T00:03:02.919Z,99.99
2017-06-30T00:03:16.364Z,99.99
2017-06-30T00:03:29.864Z,99.99
2017-06-30T00:03:43.273Z,99.99
2017-06-30T00:03:56.262Z,99.99
2017-06-30T00:04:09.716Z,99.99
2017-06-30T00:04:23.169Z,99.99
2017-06-30T00:04:36.098Z,99.99
2017-06-30T00:04:49.583Z,99.99
2017-06-30T00:05:03.004Z,99.99
2017-06-30T00:05:15.903Z,99.99
2017-06-30T00:05:28.856Z,99.99
2017-06-30T00:05:42.297Z,99.99
2017-06-30T00:05:55.739Z,99.99
2017-06-30T00:06:08.701Z,99.99
2017-06-30T00:06:21.603Z,99.99
2017-06-30T00:06:35.032Z,99.99
2017-06-30T00:06:48.484Z,99.99
2017-06-30T00:07:01.948Z,99.99
2017-06-30T00:07:15.402Z,99.99
2017-06-30T00:07:28.880Z,99.99
2017-06-30T00:07:42.599Z,99.99
2017-06-30T00:07:56.026Z,99.99
2017-06-30T00:08:08.916Z,99.99
2017-06-30T00:08:22.442Z,99.99
2017-06-30T00:08:35.426Z,99.99
2017-06-30T00:08:48.972Z,99.99
2017-06-30T00:09:02.487Z,99.99
2017-06-30T00:09:15.889Z,99.99
2017-06-30T00:09:29.358Z,99.99
2017-06-30T00:09:42.773Z,99.99
2017-06-30T00:09:56.194Z,99.99
2017-06-30T00:10:09.640Z,99.99
2017-06-30T00:10:23.075Z,99.99
2017-06-30T00:10:35.468Z,99.99
2017-06-30T00:10:48.973Z,99.99
2017-06-30T00:11:02.480Z,99.99
2017-06-30T00:11:15.964Z,99.99
2017-06-30T00:11:29.433Z,99.99
2017-06-30T00:11:42.906Z,99.99
2017-06-30T00:11:56.368Z,99.99
2017-06-30T00:12:09.776Z,99.99
2017-06-30T00:12:23.246Z,99.99
2017-06-30T00:12:36.729Z,99.99
2017-06-30T00:12:50.166Z,99.99
2017-06-30T00:13:03.101Z,99.99
2017-06-30T00:13:16.582Z,99.99
2017-06-30T00:13:29.529Z,99.99
2017-06-30T00:13:42.973Z,99.99
2017-06-30T00:13:56.433Z,99.99
2017-06-30T00:14:09.900Z,99.99
2017-06-30T00:14:23.321Z,99.99
2017-06-30T00:14:36.234Z,99.99
2017-06-30T00:14:49.704Z,99.99
2017-06-30T00:15:03.155Z,99.99
2017-06-30T00:15:16.619Z,99.99
2017-06-30T00:15:30.130Z,99.99
2017-06-30T00:15:43.072Z,99.99
2017-06-30T00:15:56.486Z,99.99
2017-06-30T00:16:09.892Z,99.99
2017-06-30T00:16:23.377Z,99.99
2017-06-30T00:16:36.756Z,99.99
2017-06-30T00:16:50.185Z,99.99
2017-06-30T00:17:03.628Z,99.99
2017-06-30T00:17:17.151Z,99.99
2017-06-30T00:17:30.097Z,99.99
2017-06-30T00:17:42.997Z,99.99
2017-06-30T00:17:56.433Z,99.99
2017-06-30T00:18:09.386Z,99.99
2017-06-30T00:18:22.916Z,99.99
2017-06-30T00:18:35.863Z,99.99
2017-06-30T00:18:49.359Z,99.99
2017-06-30T00:19:02.878Z,99.99
2017-06-30T00:19:16.300Z,99.99
2017-06-30T00:19:29.796Z,99.99
2017-06-30T00:19:43.271Z,99.99
2017-06-30T00:19:56.704Z,99.99
2017-06-30T00:20:10.218Z,99.99
2017-06-30T00:20:23.661Z,99.99
2017-06-30T00:20:37.128Z,99.99
2017-06-30T00:20:50.091Z,99.99
2017-06-30T00:21:03.504Z,99.99
2017-06-30T00:21:16.971Z,99.99
2017-06-30T00:21:30.387Z,99.99
2017-06-30T00:21:43.783Z,99.99
2017-06-30T00:21:57.262Z,99.99
2017-06-30T00:22:10.201Z,99.99
2017-06-30T00:22:23.649Z,99.99
2017-06-30T00:22:37.127Z,99.99
2017-06-30T00:22:50.890Z,99.99
2017-06-30T00:23:03.831Z,99.99
2017-06-30T00:23:17.323Z,99.99
2017-06-30T00:23:30.247Z,99.99
2017-06-30T00:23:43.679Z,99.99
2017-06-30T00:23:56.655Z,99.99
2017-06-30T00:24:10.110Z,99.99
2017-06-30T00:24:23.572Z,99.99
2017-06-30T00:24:36.486Z,99.99
2017-06-30T00:24:49.911Z,99.99
2017-06-30T00:25:03.317Z,99.99
2017-06-30T00:25:16.322Z,99.99
2017-06-30T00:25:29.777Z,99.99
2017-06-30T00:25:43.171Z,99.99
2017-06-30T00:25:56.608Z,99.99
2017-06-30T00:26:10.057Z,99.99
2017-06-30T00:26:23.490Z,99.99
2017-06-30T00:26:36.955Z,99.99
2017-06-30T00:26:49.890Z,99.99
2017-06-30T00:27:03.364Z,99.99
2017-06-30T00:27:15.202Z,99.99
2017-06-30T00:27:28.672Z,99.99
2017-06-30T00:27:42.115Z,99.99
2017-06-30T00:27:55.044Z,99.99
2017-06-30T00:28:07.968Z,99.99
2017-06-30T00:28:21.389Z,99.99
2017-06-30T00:28:34.879Z,99.99
2017-06-30T00:28:48.346Z,99.99
2017-06-30T00:29:01.773Z,99.99
2017-06-30T00:29:15.213Z,99.99
2017-06-30T00:29:28.697Z,99.99
2017-06-30T00:29:42.142Z,99.99
2017-06-30T00:29:55.544Z,99.99
2017-06-30T00:30:08.474Z,99.99
2017-06-30T00:30:21.922Z,99.99
2017-06-30T00:30:35.348Z,99.99
2017-06-30T00:30:48.772Z,99.99
2017-06-30T00:31:02.206Z,99.99
2017-06-30T00:31:15.670Z,99.99
2017-06-30T00:31:29.060Z,99.99
2017-06-30T00:31:42.450Z,99.99
2017-06-30T00:31:55.912Z,99.99
2017-06-30T00:32:08.830Z,99.99
2017-06-30T00:32:22.277Z,99.99
2017-06-30T00:32:35.768Z,99.99
2017-06-30T00:32:49.212Z,99.99
2017-06-30T00:33:02.680Z,99.99
2017-06-30T00:33:16.092Z,99.99
2017-06-30T00:33:29.561Z,99.99
2017-06-30T00:33:42.448Z,99.99
2017-06-30T00:33:55.945Z,99.99
2017-06-30T00:34:09.415Z,99.99
2017-06-30T00:34:22.847Z,99.99
2017-06-30T00:34:36.257Z,99.99
2017-06-30T00:34:49.714Z,99.99
2017-06-30T00:35:03.130Z,99.99
2017-06-30T00:35:15.999Z,99.99
2017-06-30T00:35:28.883Z,99.99
2017-06-30T00:35:42.381Z,99.99
2017-06-30T00:35:55.330Z,99.99
2017-06-30T00:36:08.792Z,99.99
2017-06-30T00:36:22.193Z,99.99
2017-06-30T00:36:35.670Z,99.99
2017-06-30T00:36:48.593Z,99.99
2017-06-30T00:37:02.010Z,99.99
2017-06-30T00:37:15.569Z,99.99
2017-06-30T00:37:29.026Z,99.99
2017-06-30T00:37:42.464Z,99.99
2017-06-30T00:37:55.686Z,99.99
2017-06-30T00:38:08.625Z,99.99
2017-06-30T00:38:22.086Z,99.99
2017-06-30T00:38:35.527Z,99.99
2017-06-30T00:38:48.406Z,99.99
2017-06-30T00:39:01.876Z,99.99
2017-06-30T00:39:15.352Z,99.99
2017-06-30T00:39:28.785Z,99.99
2017-06-30T00:39:42.277Z,99.99
2017-06-30T00:39:55.971Z,99.99
2017-06-30T00:40:09.526Z,99.99
2017-06-30T00:40:22.950Z,99.99
2017-06-30T00:40:36.363Z,99.99
2017-06-30T00:40:49.264Z,99.99
2017-06-30T00:41:02.701Z,99.99
2017-06-30T00:41:16.212Z,99.99
2017-06-30T00:41:29.134Z,99.99
2017-06-30T00:41:42.564Z,99.99
2017-06-30T00:41:56.030Z,99.99
2017-06-30T00:42:09.491Z,99.99
2017-06-30T00:42:22.992Z,99.99
2017-06-30T00:42:36.385Z,99.99
2017-06-30T00:42:49.274Z,99.99
2017-06-30T00:43:02.663Z,99.99
2017-06-30T00:43:16.093Z,99.99
2017-06-30T00:43:29.547Z,99.99
2017-06-30T00:43:43.009Z,99.99
2017-06-30T00:43:56.445Z,99.99
2017-06-30T00:44:09.930Z,99.99
2017-06-30T00:44:23.386Z,99.99
2017-06-30T00:44:36.905Z,99.99
2017-06-30T00:44:50.358Z,99.99
2017-06-30T00:45:03.817Z,99.99
2017-06-30T00:45:17.253Z,99.99
2017-06-30T00:45:30.699Z,99.99
2017-06-30T00:45:44.122Z,99.99
2017-06-30T00:45:57.570Z,99.99
2017-06-30T00:46:11.050Z,99.99
2017-06-30T00:46:24.519Z,99.99
2017-06-30T00:46:37.980Z,99.99
2017-06-30T00:46:51.502Z,99.99
2017-06-30T00:47:04.897Z,99.99
2017-06-30T00:47:18.347Z,99.99
2017-06-30T00:47:31.302Z,99.99
2017-06-30T00:47:44.776Z,99.99
2017-06-30T00:47:58.187Z,99.99
2017-06-30T00:48:11.135Z,99.99
2017-06-30T00:48:24.561Z,99.99
2017-06-30T00:48:37.974Z,99.99
2017-06-30T00:48:51.440Z,99.99
2017-06-30T00:49:04.872Z,99.99
2017-06-30T00:49:18.385Z,99.99
2017-06-30T00:49:31.870Z,99.99
2017-06-30T00:49:45.302Z,99.99
2017-06-30T00:49:58.744Z,99.99
2017-06-30T00:50:12.202Z,99.99
2017-06-30T00:50:25.614Z,99.99
2017-06-30T00:50:39.076Z,99.99
2017-06-30T00:50:52.569Z,99.99
2017-06-30T00:51:05.983Z,99.99
2017-06-30T00:51:18.913Z,99.99
2017-06-30T00:51:32.363Z,99.99
2017-06-30T00:51:45.910Z,99.99
2017-06-30T00:51:59.353Z,99.99
2017-06-30T00:52:12.828Z,99.99
2017-06-30T00:52:26.315Z,99.99
2017-06-30T00:52:39.801Z,99.99
2017-06-30T00:52:53.504Z,99.99
2017-06-30T00:53:07.001Z,99.99
2017-06-30T00:53:20.507Z,99.99
2017-06-30T00:53:33.957Z,99.99
2017-06-30T00:53:47.354Z,99.99
2017-06-30T00:54:00.800Z,99.99
2017-06-30T00:54:14.341Z,99.99
2017-06-30T00:54:27.778Z,99.99
2017-06-30T00:54:41.209Z,99.99
2017-06-30T00:54:54.674Z,99.99
2017-06-30T00:55:08.080Z,99.99
2017-06-30T00:55:21.534Z,99.99
2017-06-30T00:55:34.993Z,99.99
2017-06-30T00:55:48.450Z,99.99
2017-06-30T00:56:01.928Z,99.99
2017-06-30T00:56:15.367Z,99.99
2017-06-30T00:56:28.797Z,99.99
2017-06-30T00:56:42.249Z,99.99
2017-06-30T00:56:55.701Z,99.99
2017-06-30T00:57:09.134Z,99.99
2017-06-30T00:57:22.526Z,99.99
2017-06-30T00:57:35.935Z,99.99
2017-06-30T00:57:49.326Z,99.99
2017-06-30T00:58:02.212Z,99.99
2017-06-30T00:58:15.651Z,99.99
2017-06-30T00:58:29.136Z,99.99
2017-06-30T00:58:42.562Z,99.99
2017-06-30T00:58:56.061Z,99.99
2017-06-30T00:59:09.510Z,99.99
2017-06-30T00:59:22.908Z,99.99
2017-06-30T00:59:36.348Z,99.99
2017-06-30T00:59:49.848Z,99.99
2017-06-30T01:00:03.290Z,99.99
2017-06-30T01:00:16.717Z,99.99
2017-06-30T01:00:30.166Z,99.99
2017-06-30T01:00:43.673Z,99.99
2017-06-30T01:00:57.047Z,99.99
2017-06-30T01:01:09.969Z,99.99
2017-06-30T01:01:22.871Z,99.99
2017-06-30T01:01:35.810Z,99.99
2017-06-30T01:01:49.256Z,99.99
2017-06-30T01:02:02.185Z,99.99
2017-06-30T01:02:15.698Z,99.99
2017-06-30T01:02:29.112Z,99.99
2017-06-30T01:02:42.610Z,99.99
2017-06-30T01:02:56.038Z,99.99
2017-06-30T01:03:09.529Z,99.99
2017-06-30T01:03:22.971Z,99.99
2017-06-30T01:03:36.366Z,99.99
2017-06-30T01:03:49.791Z,99.99
2017-06-30T01:04:03.217Z,99.99
2017-06-30T01:04:16.623Z,99.99
2017-06-30T01:04:30.063Z,99.99
2017-06-30T01:04:43.535Z,99.99
2017-06-30T01:04:56.427Z,99.99
2017-06-30T01:05:09.342Z,99.99
2017-06-30T01:05:22.860Z,99.99
2017-06-30T01:05:36.369Z,99.99
2017-06-30T01:05:49.758Z,99.99
2017-06-30T01:06:03.205Z,99.99
2017-06-30T01:06:16.629Z,99.99
2017-06-30T01:06:30.077Z,99.99
2017-06-30T01:06:43.543Z,99.99
2017-06-30T01:06:56.953Z,99.99
2017-06-30T01:07:10.402Z,99.99
2017-06-30T01:07:23.294Z,99.99
2017-06-30T01:07:36.738Z,99.99
2017-06-30T01:07:50.203Z,99.99
2017-06-30T01:08:03.843Z,99.99
2017-06-30T01:08:17.363Z,99.99
2017-06-30T01:08:30.806Z,99.99
2017-06-30T01:08:44.222Z,99.99
2017-06-30T01:08:57.701Z,99.99
2017-06-30T01:09:10.592Z,99.99
2017-06-30T01:09:24.063Z,99.99
2017-06-30T01:09:37.515Z,99.99
2017-06-30T01:09:51.007Z,99.99
2017-06-30T01:10:04.450Z,99.99
2017-06-30T01:10:17.905Z,99.99
2017-06-30T01:10:30.819Z,99.99
2017-06-30T01:10:43.730Z,99.99
2017-06-30T01:10:57.129Z,99.99
2017-06-30T01:11:10.529Z,99.99
2017-06-30T01:11:23.921Z,99.99
2017-06-30T01:11:36.371Z,99.99
2017-06-30T01:11:49.815Z,99.99
2017-06-30T01:12:03.268Z,99.99
2017-06-30T01:12:16.713Z,99.99
2017-06-30T01:12:29.633Z,99.99
2017-06-30T01:12:43.052Z,99.99
2017-06-30T01:12:56.479Z,99.99
2017-06-30T01:13:09.423Z,99.99
2017-06-30T01:13:22.862Z,99.99
2017-06-30T01:13:36.321Z,99.99
2017-06-30T01:13:49.771Z,99.99
2017-06-30T01:14:03.236Z,99.99
2017-06-30T01:14:16.711Z,99.99
2017-06-30T01:14:30.202Z,99.99
2017-06-30T01:14:43.686Z,99.99
2017-06-30T01:14:57.206Z,99.99
2017-06-30T01:15:10.655Z,99.99
2017-06-30T01:15:24.090Z,99.99
2017-06-30T01:15:37.044Z,99.99
2017-06-30T01:15:50.506Z,99.99
2017-06-30T01:16:03.956Z,99.99
2017-06-30T01:16:17.395Z,99.99
2017-06-30T01:16:30.817Z,99.99
2017-06-30T01:16:44.247Z,99.99
2017-06-30T01:16:57.764Z,99.99
2017-06-30T01:17:11.237Z,99.99
2017-06-30T01:17:24.182Z,99.99
2017-06-30T01:17:37.090Z,99.99
2017-06-30T01:17:50.545Z,99.99
2017-06-30T01:18:04.229Z,99.99
2017-06-30T01:18:17.748Z,99.99
2017-06-30T01:18:30.626Z,99.99
2017-06-30T01:18:43.732Z,99.99
2017-06-30T01:18:57.200Z,99.99
2017-06-30T01:19:10.132Z,99.99
2017-06-30T01:19:23.310Z,99.99
2017-06-30T01:19:36.738Z,99.99
2017-06-30T01:19:50.177Z,99.99
2017-06-30T01:20:03.625Z,99.99
2017-06-30T01:20:16.545Z,99.99
2017-06-30T01:20:30.035Z,99.99
2017-06-30T01:20:42.437Z,99.99
2017-06-30T01:20:55.864Z,99.99
2017-06-30T01:21:09.286Z,99.99
2017-06-30T01:21:22.713Z,99.99
2017-06-30T01:21:35.658Z,99.99
2017-06-30T01:21:49.051Z,99.99
2017-06-30T01:22:02.506Z,99.99
2017-06-30T01:22:15.936Z,99.99
2017-06-30T01:22:29.324Z,99.99
2017-06-30T01:22:42.786Z,99.99
2017-06-30T01:22:56.263Z,99.99
2017-06-30T01:23:09.957Z,99.99
2017-06-30T01:23:23.413Z,99.99
2017-06-30T01:23:36.862Z,99.99
2017-06-30T01:23:50.308Z,99.99
2017-06-30T01:24:03.761Z,99.99
2017-06-30T01:24:17.269Z,99.99
2017-06-30T01:24:30.670Z,99.99
2017-06-30T01:24:44.113Z,99.99
2017-06-30T01:24:57.811Z,99.99
2017-06-30T01:25:11.284Z,99.99
2017-06-30T01:25:24.698Z,99.99
2017-06-30T01:25:38.112Z,99.99
2017-06-30T01:25:51.568Z,99.99
2017-06-30T01:26:05.071Z,99.99
2017-06-30T01:26:18.530Z,99.99
2017-06-30T01:26:31.998Z,99.99
2017-06-30T01:26:44.931Z,99.99
2017-06-30T01:26:58.376Z,99.99
2017-06-30T01:27:11.801Z,99.99
2017-06-30T01:27:25.208Z,99.99
2017-06-30T01:27:38.624Z,99.99
2017-06-30T01:27:52.141Z,99.99
2017-06-30T01:28:05.599Z,99.99
2017-06-30T01:28:19.038Z,99.99
2017-06-30T01:28:32.466Z,99.99
2017-06-30T01:28:45.849Z,99.99
2017-06-30T01:28:59.304Z,99.99
2017-06-30T01:29:12.237Z,99.99
2017-06-30T01:29:25.670Z,99.99
2017-06-30T01:29:39.107Z,99.99
2017-06-30T01:29:52.631Z,99.99
2017-06-30T01:30:06.096Z,99.99
2017-06-30T01:30:19.065Z,99.99
2017-06-30T01:30:32.505Z,99.99
2017-06-30T01:30:45.935Z,99.99
2017-06-30T01:30:58.841Z,99.99
2017-06-30T01:31:12.319Z,99.99
2017-06-30T01:31:25.721Z,99.99
2017-06-30T01:31:39.196Z,99.99
2017-06-30T01:31:52.651Z,99.99
2017-06-30T01:32:05.568Z,99.99
2017-06-30T01:32:18.978Z,99.99
2017-06-30T01:32:32.433Z,99.99
2017-06-30T01:32:45.390Z,99.99
2017-06-30T01:32:58.810Z,99.99
2017-06-30T01:33:12.276Z,99.99
2017-06-30T01:33:25.741Z,99.99
2017-06-30T01:33:39.194Z,99.99
2017-06-30T01:33:52.116Z,99.99
2017-06-30T01:34:05.070Z,99.99
2017-06-30T01:34:18.510Z,99.99
2017-06-30T01:34:31.935Z,99.99
2017-06-30T01:34:45.340Z,99.99
2017-06-30T01:34:58.774Z,99.99
2017-06-30T01:35:12.185Z,99.99
2017-06-30T01:35:25.653Z,99.99
2017-06-30T01:35:39.084Z,99.99
2017-06-30T01:35:53.447Z,99.99
2017-06-30T01:36:06.890Z,99.99
2017-06-30T01:36:20.414Z,99.99
2017-06-30T01:36:33.894Z,99.99
2017-06-30T01:36:47.324Z,99.99
2017-06-30T01:37:00.825Z,99.99
2017-06-30T01:37:14.328Z,99.99
2017-06-30T01:37:27.766Z,99.99
2017-06-30T01:37:41.187Z,99.99
2017-06-30T01:37:54.091Z,99.99
2017-06-30T01:38:07.551Z,99.99
2017-06-30T01:38:21.217Z,99.99
2017-06-30T01:38:34.147Z,99.99
2017-06-30T01:38:47.076Z,99.99
2017-06-30T01:39:00.543Z,99.99
2017-06-30T01:39:13.451Z,99.99
2017-06-30T01:39:26.863Z,99.99
2017-06-30T01:39:39.738Z,99.99
2017-06-30T01:39:53.184Z,99.99
2017-06-30T01:40:06.635Z,99.99
2017-06-30T01:40:20.079Z,99.99
2017-06-30T01:40:33.545Z,99.99
2017-06-30T01:40:46.951Z,99.99
2017-06-30T01:41:00.470Z,99.99
2017-06-30T01:41:13.959Z,99.99
2017-06-30T01:41:27.377Z,99.99
2017-06-30T01:41:40.859Z,99.99
2017-06-30T01:41:54.324Z,99.99
2017-06-30T01:42:07.280Z,99.99
2017-06-30T01:42:20.798Z,99.99
2017-06-30T01:42:34.309Z,99.99
2017-06-30T01:42:47.246Z,99.99
2017-06-30T01:43:00.703Z,99.99
2017-06-30T01:43:14.198Z,99.99
2017-06-30T01:43:27.620Z,99.99
2017-06-30T01:43:41.086Z,99.99
2017-06-30T01:43:53.995Z,99.99
2017-06-30T01:44:07.446Z,99.99
2017-06-30T01:44:20.438Z,99.99
2017-06-30T01:44:33.982Z,99.99
2017-06-30T01:44:46.907Z,99.99
2017-06-30T01:45:00.293Z,99.99
2017-06-30T01:45:13.739Z,99.99
2017-06-30T01:45:27.256Z,99.99
2017-06-30T01:45:40.742Z,99.99
2017-06-30T01:45:53.711Z,99.99
2017-06-30T01:46:07.209Z,99.99
2017-06-30T01:46:20.638Z,99.99
2017-06-30T01:46:34.078Z,99.99
2017-06-30T01:46:47.564Z,99.99
2017-06-30T01:47:00.970Z,99.99
2017-06-30T01:47:14.466Z,99.99
2017-06-30T01:47:27.848Z,99.99
2017-06-30T01:47:41.284Z,99.99
2017-06-30T01:47:54.185Z,99.99
2017-06-30T01:48:07.657Z,99.99
2017-06-30T01:48:21.072Z,99.99
2017-06-30T01:48:33.977Z,99.99
2017-06-30T01:48:47.463Z,99.99
2017-06-30T01:49:00.960Z,99.99
2017-06-30T01:49:14.430Z,99.99
2017-06-30T01:49:27.849Z,99.99
2017-06-30T01:49:41.297Z,99.99
2017-06-30T01:49:54.713Z,99.99
2017-06-30T01:50:08.110Z,99.99
2017-06-30T01:50:21.538Z,99.99
2017-06-30T01:50:35.033Z,99.99
2017-06-30T01:50:48.509Z,99.99
2017-06-30T01:51:01.954Z,99.99
2017-06-30T01:51:15.444Z,99.99
2017-06-30T01:51:28.078Z,99.99
2017-06-30T01:51:41.566Z,99.99
2017-06-30T01:51:54.555Z,99.99
2017-06-30T01:52:07.952Z,99.99
2017-06-30T01:52:21.408Z,99.99
2017-06-30T01:52:34.805Z,99.99
2017-06-30T01:52:48.249Z,99.99
2017-06-30T01:53:01.157Z,99.99
2017-06-30T01:53:14.628Z,99.99
2017-06-30T01:53:28.463Z,99.99
2017-06-30T01:53:41.896Z,99.99
2017-06-30T01:53:54.826Z,99.99
2017-06-30T01:54:08.262Z,99.99
2017-06-30T01:54:21.767Z,99.99
2017-06-30T01:54:35.233Z,99.99
2017-06-30T01:54:48.158Z,99.99
2017-06-30T01:55:01.096Z,99.99
2017-06-30T01:55:14.537Z,99.99
2017-06-30T01:55:28.042Z,99.99
2017-06-30T01:55:41.490Z,99.99
2017-06-30T01:55:54.984Z,99.99
2017-06-30T01:56:08.488Z,99.99
2017-06-30T01:56:21.965Z,99.99
2017-06-30T01:56:35.446Z,99.99
2017-06-30T01:56:48.900Z,99.99
2017-06-30T01:57:02.351Z,99.99
2017-06-30T01:57:15.774Z,99.99
2017-06-30T01:57:29.251Z,99.99
2017-06-30T01:57:42.740Z,99.99
2017-06-30T01:57:55.641Z,99.99
2017-06-30T01:58:09.117Z,99.99
2017-06-30T01:58:22.617Z,99.99
2017-06-30T01:58:36.106Z,99.99
2017-06-30T01:58:49.543Z,99.99
2017-06-30T01:59:03.052Z,99.99
2017-06-30T01:59:16.525Z,99.99
2017-06-30T01:59:29.945Z,99.99
2017-06-30T01:59:43.383Z,99.99
2017-06-30T01:59:56.853Z,99.99
2017-06-30T02:00:10.289Z,99.99
2017-06-30T02:00:23.757Z,99.99
2017-06-30T02:00:37.192Z,99.99
2017-06-30T02:00:50.626Z,99.99
2017-06-30T02:01:04.100Z,99.99
2017-06-30T02:01:17.518Z,99.99
2017-06-30T02:01:30.993Z,99.99
2017-06-30T02:01:44.413Z,99.99
2017-06-30T02:01:57.897Z,99.99
2017-06-30T02:02:11.333Z,99.99
2017-06-30T02:02:24.796Z,99.99
2017-06-30T02:02:38.240Z,99.99
2017-06-30T02:02:51.184Z,99.99
2017-06-30T02:03:04.187Z,99.99
2017-06-30T02:03:17.606Z,99.99
2017-06-30T02:03:31.273Z,99.99
2017-06-30T02:03:44.794Z,99.99
2017-06-30T02:03:58.243Z,99.99
2017-06-30T02:04:11.141Z,99.99
2017-06-30T02:04:24.523Z,99.99
2017-06-30T02:04:37.452Z,99.99
2017-06-30T02:04:50.883Z,99.99
2017-06-30T02:05:03.286Z,99.99
2017-06-30T02:05:15.727Z,99.99
2017-06-30T02:05:29.267Z,99.99
2017-06-30T02:05:42.738Z,99.99
2017-06-30T02:05:56.196Z,99.99
2017-06-30T02:06:09.677Z,99.99
2017-06-30T02:06:23.157Z,99.99
2017-06-30T02:06:36.654Z,99.99
2017-06-30T02:06:50.066Z,99.52
2017-06-30T02:07:02.489Z,99.99
2017-06-30T02:07:15.920Z,99.99
2017-06-30T02:07:29.369Z,99.81
2017-06-30T02:07:42.834Z,99.62
2017-06-30T02:07:56.258Z,99.9
2017-06-30T02:08:09.722Z,99.71
2017-06-30T02:08:23.136Z,99.33
2017-06-30T02:08:36.255Z,99.81
2017-06-30T02:08:49.740Z,99.33
2017-06-30T02:09:03.170Z,99.14
2017-06-30T02:09:16.132Z,99.14
2017-06-30T02:09:29.548Z,99.14
2017-06-30T02:09:42.958Z,99.14
2017-06-30T02:09:56.395Z,99.33
2017-06-30T02:10:09.275Z,98.57
2017-06-30T02:10:22.733Z,98.75
2017-06-30T02:10:36.138Z,98.75
2017-06-30T02:10:49.634Z,99.04
2017-06-30T02:11:03.163Z,98.85
2017-06-30T02:11:16.614Z,98.75
2017-06-30T02:11:30.108Z,98.85
2017-06-30T02:11:43.048Z,98.75
2017-06-30T02:11:56.490Z,99.04
2017-06-30T02:12:09.911Z,99.04
2017-06-30T02:12:23.322Z,98.95
2017-06-30T02:12:36.221Z,98.95
2017-06-30T02:12:49.711Z,99.04
2017-06-30T02:13:03.592Z,99.04
2017-06-30T02:13:16.964Z,98.57
2017-06-30T02:13:29.844Z,98.47
2017-06-30T02:13:43.315Z,98.57
2017-06-30T02:13:56.766Z,98.57
2017-06-30T02:14:09.203Z,98.66
2017-06-30T02:14:22.652Z,99.04
2017-06-30T02:14:36.094Z,98.57
2017-06-30T02:14:49.540Z,98.66
2017-06-30T02:15:02.950Z,98.75
2017-06-30T02:15:15.845Z,98.47
2017-06-30T02:15:29.247Z,98.85
2017-06-30T02:15:42.381Z,98.66
2017-06-30T02:15:55.778Z,98.66
2017-06-30T02:16:09.244Z,98.66
2017-06-30T02:16:22.647Z,99.24
2017-06-30T02:16:36.103Z,99.81
2017-06-30T02:16:49.521Z,99.24
2017-06-30T02:17:02.932Z,99.33
2017-06-30T02:17:16.374Z,99.81
2017-06-30T02:17:29.781Z,99.81
2017-06-30T02:17:43.227Z,99.62
2017-06-30T02:17:56.640Z,99.43
2017-06-30T02:18:09.543Z,99.09
2017-06-30T02:18:22.485Z,99.33
2017-06-30T02:18:35.948Z,99.33
2017-06-30T02:18:49.344Z,99.33
2017-06-30T02:19:02.334Z,98.95
2017-06-30T02:19:15.803Z,99.14
2017-06-30T02:19:29.286Z,99.19
2017-06-30T02:19:42.748Z,99.19
2017-06-30T02:19:56.220Z,99.33
2017-06-30T02:20:09.178Z,99.43
2017-06-30T02:20:21.594Z,99.76
2017-06-30T02:20:34.520Z,99.43
2017-06-30T02:20:47.472Z,99.57
2017-06-30T02:21:00.899Z,99.43
2017-06-30T02:21:14.406Z,99.76
2017-06-30T02:21:27.859Z,99.57
2017-06-30T02:21:41.304Z,99.76
2017-06-30T02:21:54.793Z,99.66
2017-06-30T02:22:08.302Z,99.81
2017-06-30T02:22:21.268Z,99.38
2017-06-30T02:22:34.802Z,99.66
2017-06-30T02:22:48.253Z,99.76
2017-06-30T02:23:01.649Z,99.71
2017-06-30T02:23:14.514Z,99.62
2017-06-30T02:23:27.970Z,99.81
2017-06-30T02:23:41.794Z,98.99
2017-06-30T02:23:55.244Z,99.14
2017-06-30T02:24:08.685Z,99.71
2017-06-30T02:24:22.115Z,99.57
2017-06-30T02:24:35.584Z,98.99
2017-06-30T02:24:48.571Z,99.19
2017-06-30T02:25:02.000Z,99.76
2017-06-30T02:25:14.909Z,99.66
2017-06-30T02:25:28.322Z,99.28
2017-06-30T02:25:41.218Z,99.28
2017-06-30T02:25:54.648Z,99.48
2017-06-30T02:26:08.079Z,99.28
2017-06-30T02:26:21.547Z,99.28
2017-06-30T02:26:34.404Z,99.76
2017-06-30T02:26:47.882Z,98.9
2017-06-30T02:27:01.383Z,99.28
2017-06-30T02:27:14.843Z,99.09
2017-06-30T02:27:28.266Z,99.28
2017-06-30T02:27:41.694Z,99.28
2017-06-30T02:27:55.250Z,99.48
2017-06-30T02:28:08.176Z,98.61
2017-06-30T02:28:21.087Z,99.09
2017-06-30T02:28:34.560Z,98.9
2017-06-30T02:28:47.473Z,98.9
2017-06-30T02:29:00.904Z,98.9
2017-06-30T02:29:14.397Z,98.8
2017-06-30T02:29:27.330Z,98.42
2017-06-30T02:29:40.720Z,98.9
2017-06-30T02:29:54.187Z,98.9
2017-06-30T02:30:07.617Z,98.8
2017-06-30T02:30:21.026Z,98.04
2017-06-30T02:30:34.528Z,98.33
2017-06-30T02:30:48.029Z,98.13
2017-06-30T02:31:01.463Z,98.13
2017-06-30T02:31:14.908Z,98.23
2017-06-30T02:31:28.393Z,97.75
2017-06-30T02:31:41.820Z,97.66
2017-06-30T02:31:55.311Z,97.75
2017-06-30T02:32:08.942Z,97.94
2017-06-30T02:32:22.345Z,98.13
2017-06-30T02:32:35.805Z,98.13
2017-06-30T02:32:48.203Z,98.04
2017-06-30T02:33:01.646Z,98.23
2017-06-30T02:33:15.114Z,98.04
2017-06-30T02:33:28.528Z,98.04
2017-06-30T02:33:42.267Z,97.94
2017-06-30T02:33:55.672Z,98.04
2017-06-30T02:34:09.102Z,98.04
2017-06-30T02:34:22.014Z,97.85
2017-06-30T02:34:34.936Z,97.94
2017-06-30T02:34:47.937Z,97.94
2017-06-30T02:35:01.459Z,97.94
2017-06-30T02:35:14.969Z,97.94
2017-06-30T02:35:28.431Z,97.94
2017-06-30T02:35:41.909Z,97.94
2017-06-30T02:35:55.329Z,98.23
2017-06-30T02:36:08.753Z,97.94
2017-06-30T02:36:22.175Z,98.23
2017-06-30T02:36:35.607Z,97.94
2017-06-30T02:36:49.063Z,98.04
2017-06-30T02:37:02.569Z,97.94
2017-06-30T02:37:15.998Z,97.85
2017-06-30T02:37:29.425Z,97.75
2017-06-30T02:37:42.924Z,97.75
2017-06-30T02:37:56.453Z,97.94
2017-06-30T02:38:09.390Z,98.13
2017-06-30T02:38:22.807Z,98.23
2017-06-30T02:38:36.272Z,97.85
2017-06-30T02:38:49.930Z,98.23
2017-06-30T02:39:03.356Z,97.94
2017-06-30T02:39:16.802Z,97.94
2017-06-30T02:39:30.261Z,97.94
2017-06-30T02:39:43.725Z,97.94
2017-06-30T02:39:57.233Z,98.04
2017-06-30T02:40:10.759Z,97.75
2017-06-30T02:40:24.251Z,97.75
2017-06-30T02:40:37.163Z,97.66
2017-06-30T02:40:50.647Z,97.75
2017-06-30T02:41:04.130Z,97.75
2017-06-30T02:41:17.607Z,97.75
2017-06-30T02:41:30.505Z,97.94
2017-06-30T02:41:43.444Z,97.85
2017-06-30T02:41:56.913Z,98.33
2017-06-30T02:42:10.357Z,98.23
2017-06-30T02:42:23.852Z,98.42
2017-06-30T02:42:37.376Z,98.42
2017-06-30T02:42:50.869Z,98.33
2017-06-30T02:43:04.355Z,98.42
2017-06-30T02:43:17.236Z,98.37
2017-06-30T02:43:30.629Z,97.94
2017-06-30T02:43:44.057Z,97.94
2017-06-30T02:43:57.531Z,97.94
2017-06-30T02:44:10.448Z,97.99
2017-06-30T02:44:23.910Z,97.66
2017-06-30T02:44:37.371Z,98.18
2017-06-30T02:44:50.264Z,98.33
2017-06-30T02:45:03.750Z,97.94
2017-06-30T02:45:17.174Z,97.94
2017-06-30T02:45:30.119Z,97.94
2017-06-30T02:45:43.620Z,98.08
2017-06-30T02:45:57.080Z,97.85
2017-06-30T02:46:10.569Z,97.99
2017-06-30T02:46:24.045Z,97.52
2017-06-30T02:46:37.539Z,97.66
2017-06-30T02:46:51.048Z,97.71
2017-06-30T02:47:04.512Z,97.61
2017-06-30T02:47:17.949Z,97.75
2017-06-30T02:47:31.431Z,97.61
2017-06-30T02:47:44.331Z,97.71
2017-06-30T02:47:57.762Z,97.89
2017-06-30T02:48:11.242Z,97.94
2017-06-30T02:48:24.663Z,97.99
2017-06-30T02:48:38.125Z,98.08
2017-06-30T02:48:51.641Z,98.08
2017-06-30T02:49:04.029Z,97.71
2017-06-30T02:49:17.409Z,98.04
2017-06-30T02:49:30.877Z,98.18
2017-06-30T02:49:44.318Z,97.61
2017-06-30T02:49:57.744Z,97.28
2017-06-30T02:50:11.232Z,97.61
2017-06-30T02:50:24.705Z,97.66
2017-06-30T02:50:38.194Z,97.52
2017-06-30T02:50:51.638Z,97.56
2017-06-30T02:51:05.096Z,97.56
2017-06-30T02:51:18.583Z,97.37
2017-06-30T02:51:31.998Z,97.71
2017-06-30T02:51:45.462Z,97.56
2017-06-30T02:51:58.386Z,97.42